Rainbow Star; — VREU4 — position and weather

sailwx.info

Track history (hours):
 
Tides and Currents Weather Stations Pressure Air Temp Water Temp Dewpoint Dewpoint Depression Visibility Wind Speed Wind Dir Waves Ship Positions

Rainbow Star;

Last reported at 2018-Jul-15 17:49 UTC. Time now 2018-Jul-15 20:39 UTC.
Position N 34°22' W 125°40'.

Length 182 m; draft 7.2 m.

Type: Tanker. MMSI: 477185200.

Date/timePositionNaut miles runAvg speedWind from/ knotsBaromVisibWave heightAir tempDewpointWater temp
2018-Jul-15 17:49N 34°22' W 125°40'7 9.8
2018-Jul-15 17:08N 34°16' W 125°35'9 9.8
2018-Jul-15 16:12N 34°09' W 125°30'210.1
2018-Jul-15 15:58N 34°07' W 125°28'612.4
2018-Jul-15 15:30N 34°02' W 125°25'611.0
2018-Jul-15 15:00N 33°57' W 125°21'710.3
2018-Jul-15 14:21N 33°51' W 125°17'1510.2
2018-Jul-15 12:55N 33°39' W 125°08'1210.2
2018-Jul-15 11:42N 33°29' W 124°59'210.3
2018-Jul-15 11:29N 33°27' W 124°58'1610.0
2018-Jul-15 09:53N 33°14' W 124°47'410.0
2018-Jul-15 09:30N 33°10' W 124°44'610.0
2018-Jul-15 08:57N 33°06' W 124°41'5 9.8
2018-Jul-15 08:27N 33°02' W 124°38'6 9.7
2018-Jul-15 07:49N 32°56' W 124°34'4 9.7
2018-Jul-15 07:22N 32°53' W 124°31'5 9.8
2018-Jul-15 06:51N 32°48' W 124°28'4 9.9
2018-Jul-15 06:27N 32°45' W 124°26'4 9.7
2018-Jul-15 06:00N 32°41' W 124°24'5 9.7
2018-Jul-15 05:30N 32°37' W 124°20'5 9.9
2018-Jul-15 05:00N 32°33' W 124°17'5 9.8
2018-Jul-15 04:30N 32°29' W 124°14'710.7
2018-Jul-15 03:49N 32°22' W 124°09'513.1
2018-Jul-15 03:26N 32°18' W 124°06'511.8
2018-Jul-15 03:00N 32°14' W 124°02'6 9.2
2018-Jul-15 02:18N 32°09' W 123°58'3 9.5
2018-Jul-15 02:00N 32°06' W 123°56'6 9.3
2018-Jul-15 01:24N 32°02' W 123°53'4 9.4
2018-Jul-15 01:00N 31°58' W 123°50'5 9.7
2018-Jul-15 00:28N 31°54' W 123°47'4 9.6
2018-Jul-15 00:00N 31°51' W 123°43'5 9.6
2018-Jul-14 23:30N 31°47' W 123°40'7 9.9
2018-Jul-14 22:50N 31°42' W 123°35'310.0
2018-Jul-14 22:30N 31°39' W 123°32'5 9.8
2018-Jul-14 22:00N 31°36' W 123°28'510.1
2018-Jul-14 21:30N 31°32' W 123°24'510.1
2018-Jul-14 21:00N 31°28' W 123°20'510.1
2018-Jul-14 20:30N 31°25' W 123°17'610.2
2018-Jul-14 19:54N 31°20' W 123°12'510.0
2018-Jul-14 19:24N 31°16' W 123°08'1110.1
2018-Jul-14 18:21N 31°09' W 122°59'2110.0
2018-Jul-14 16:15N 30°54' W 122°41'2 9.9
2018-Jul-14 16:00N 30°53' W 122°39'6 9.6
2018-Jul-14 15:22N 30°49' W 122°33'4 9.6
2018-Jul-14 14:59N 30°47' W 122°30'5 9.6
2018-Jul-14 14:30N 30°44' W 122°26'1610.4
2018-Jul-14 12:57N 30°33' W 122°13'511.0
2018-Jul-14 12:30N 30°29' W 122°08'6 9.6
2018-Jul-14 11:54N 30°25' W 122°04'6 9.9
2018-Jul-14 11:17N 30°21' W 121°59'310.0
2018-Jul-14 11:00N 30°19' W 121°56'13 9.8
2018-Jul-14 09:41N 30°11' W 121°44'3 9.8
2018-Jul-14 09:24N 30°09' W 121°42'9 9.8
2018-Jul-14 08:28N 30°03' W 121°34'610.0
2018-Jul-14 07:51N 29°60' W 121°28'3 9.9
2018-Jul-14 07:30N 29°58' W 121°25'25 9.5
2018-Jul-14 04:52N 29°42' W 121°02'4 9.5
2018-Jul-14 04:27N 29°40' W 120°58'4 9.6
2018-Jul-14 03:59N 29°37' W 120°54'612.3
2018-Jul-14 03:28N 29°33' W 120°48'611.4
2018-Jul-14 02:59N 29°30' W 120°43'5 9.8
2018-Jul-14 02:29N 29°27' W 120°39'5 9.4
2018-Jul-14 02:00N 29°24' W 120°35'8 9.8
2018-Jul-14 01:13N 29°19' W 120°28'2 9.6
2018-Jul-14 00:58N 29°18' W 120°26'6 9.9
2018-Jul-14 00:24N 29°14' W 120°21'5 9.9
2018-Jul-13 23:53N 29°11' W 120°16'4 9.6
2018-Jul-13 23:30N 29°09' W 120°13'5 9.8
2018-Jul-13 23:00N 29°06' W 120°09'5 9.7
2018-Jul-13 22:30N 29°03' W 120°04'5 9.7
2018-Jul-13 21:58N 28°59' W 119°60'6 9.7
2018-Jul-13 21:24N 28°56' W 119°55'4 9.6
2018-Jul-13 20:57N 28°53' W 119°51'4 9.6
2018-Jul-13 20:29N 28°50' W 119°47'3 6.2
2018-Jul-13 19:57N 28°48' W 119°44'1 1.5
2018-Jul-13 19:30N 28°48' W 119°43'  
Track history (hours):
 
Tides and Currents Weather Stations Pressure Air Temp Water Temp Dewpoint Dewpoint Depression Visibility Wind Speed Wind Dir Waves Ship Positions

Rainbow Star;

Last reported at 2018-Jul-15 17:49 UTC. Time now 2018-Jul-15 20:39 UTC.
Position N 34°22' W 125°40'.

Length 182 m; draft 7.2 m.

Type: Tanker. MMSI: 477185200.

Date/timePositionNaut miles runAvg speedWind from/ knotsBaromVisibWave heightAir tempDewpointWater temp
2018-Jul-15 17:49N 34°22' W 125°40'7 9.8
2018-Jul-15 17:08N 34°16' W 125°35'9 9.8
2018-Jul-15 16:12N 34°09' W 125°30'210.1
2018-Jul-15 15:58N 34°07' W 125°28'612.4
2018-Jul-15 15:30N 34°02' W 125°25'611.0
2018-Jul-15 15:00N 33°57' W 125°21'710.3
2018-Jul-15 14:21N 33°51' W 125°17'1510.2
2018-Jul-15 12:55N 33°39' W 125°08'1210.2
2018-Jul-15 11:42N 33°29' W 124°59'210.3
2018-Jul-15 11:29N 33°27' W 124°58'1610.0
2018-Jul-15 09:53N 33°14' W 124°47'410.0
2018-Jul-15 09:30N 33°10' W 124°44'610.0
2018-Jul-15 08:57N 33°06' W 124°41'5 9.8
2018-Jul-15 08:27N 33°02' W 124°38'6 9.7
2018-Jul-15 07:49N 32°56' W 124°34'4 9.7
2018-Jul-15 07:22N 32°53' W 124°31'5 9.8
2018-Jul-15 06:51N 32°48' W 124°28'4 9.9
2018-Jul-15 06:27N 32°45' W 124°26'4 9.7
2018-Jul-15 06:00N 32°41' W 124°24'5 9.7
2018-Jul-15 05:30N 32°37' W 124°20'5 9.9
2018-Jul-15 05:00N 32°33' W 124°17'5 9.8
2018-Jul-15 04:30N 32°29' W 124°14'710.7
2018-Jul-15 03:49N 32°22' W 124°09'513.1
2018-Jul-15 03:26N 32°18' W 124°06'511.8
2018-Jul-15 03:00N 32°14' W 124°02'6 9.2
2018-Jul-15 02:18N 32°09' W 123°58'3 9.5
2018-Jul-15 02:00N 32°06' W 123°56'6 9.3
2018-Jul-15 01:24N 32°02' W 123°53'4 9.4
2018-Jul-15 01:00N 31°58' W 123°50'5 9.7
2018-Jul-15 00:28N 31°54' W 123°47'4 9.6
2018-Jul-15 00:00N 31°51' W 123°43'5 9.6
2018-Jul-14 23:30N 31°47' W 123°40'7 9.9
2018-Jul-14 22:50N 31°42' W 123°35'310.0
2018-Jul-14 22:30N 31°39' W 123°32'5 9.8
2018-Jul-14 22:00N 31°36' W 123°28'510.1
2018-Jul-14 21:30N 31°32' W 123°24'510.1
2018-Jul-14 21:00N 31°28' W 123°20'510.1
2018-Jul-14 20:30N 31°25' W 123°17'610.2
2018-Jul-14 19:54N 31°20' W 123°12'510.0
2018-Jul-14 19:24N 31°16' W 123°08'1110.1
2018-Jul-14 18:21N 31°09' W 122°59'2110.0
2018-Jul-14 16:15N 30°54' W 122°41'2 9.9
2018-Jul-14 16:00N 30°53' W 122°39'6 9.6
2018-Jul-14 15:22N 30°49' W 122°33'4 9.6
2018-Jul-14 14:59N 30°47' W 122°30'5 9.6
2018-Jul-14 14:30N 30°44' W 122°26'1610.4
2018-Jul-14 12:57N 30°33' W 122°13'511.0
2018-Jul-14 12:30N 30°29' W 122°08'6 9.6
2018-Jul-14 11:54N 30°25' W 122°04'6 9.9
2018-Jul-14 11:17N 30°21' W 121°59'310.0
2018-Jul-14 11:00N 30°19' W 121°56'13 9.8
2018-Jul-14 09:41N 30°11' W 121°44'3 9.8
2018-Jul-14 09:24N 30°09' W 121°42'9 9.8
2018-Jul-14 08:28N 30°03' W 121°34'610.0
2018-Jul-14 07:51N 29°60' W 121°28'3 9.9
2018-Jul-14 07:30N 29°58' W 121°25'25 9.5
2018-Jul-14 04:52N 29°42' W 121°02'4 9.5
2018-Jul-14 04:27N 29°40' W 120°58'4 9.6
2018-Jul-14 03:59N 29°37' W 120°54'612.3
2018-Jul-14 03:28N 29°33' W 120°48'611.4
2018-Jul-14 02:59N 29°30' W 120°43'5 9.8
2018-Jul-14 02:29N 29°27' W 120°39'5 9.4
2018-Jul-14 02:00N 29°24' W 120°35'8 9.8
2018-Jul-14 01:13N 29°19' W 120°28'2 9.6
2018-Jul-14 00:58N 29°18' W 120°26'6 9.9
2018-Jul-14 00:24N 29°14' W 120°21'5 9.9
2018-Jul-13 23:53N 29°11' W 120°16'4 9.6
2018-Jul-13 23:30N 29°09' W 120°13'5 9.8
2018-Jul-13 23:00N 29°06' W 120°09'5 9.7
2018-Jul-13 22:30N 29°03' W 120°04'5 9.7
2018-Jul-13 21:58N 28°59' W 119°60'6 9.7
2018-Jul-13 21:24N 28°56' W 119°55'4 9.6
2018-Jul-13 20:57N 28°53' W 119°51'4 9.6
2018-Jul-13 20:29N 28°50' W 119°47'3 6.2
2018-Jul-13 19:57N 28°48' W 119°44'1 1.5
2018-Jul-13 19:30N 28°48' W 119°43'  

Dump ship's entire track history